Time;durP1;ratioP1;P1;durP2;ratioP2;P2;SDS_P1;SDS_P2;PMS_P1;PMS_P2;Temp;Humidity;BMP_temperature;BMP_pressure;BME280_temperature;BME280_humidity;BME280_pressure;Samples;Min_cycle;Max_cycle;Signal;HPM_P1;HPM_P2
2021/04/06 00:00:28;;;;;;;;;;;17.90;59.90;;;;;;4990552;28;19928;-74
2021/04/06 00:02:57;;;;;;;;;;;17.90;59.90;;;;;;4985191;28;19913;-74
2021/04/06 00:05:23;;;;;;;;;;;17.90;59.90;;;;;;4998331;28;19941;-74
2021/04/06 00:07:50;;;;;;;;;;;17.90;59.80;;;;;;4980863;28;19975;-74
2021/04/06 00:10:23;;;;;;;;;;;17.90;59.90;;;;;;4988749;28;19916;-74
2021/04/06 00:12:52;;;;;;;;;;;17.80;59.90;;;;;;4981213;28;19949;-74
2021/04/06 00:15:19;;;;;;;;;;;17.90;59.90;;;;;;4990437;28;19910;-73
2021/04/06 00:17:45;;;;;;;;;;;17.90;59.90;;;;;;4988412;28;19944;-73
2021/04/06 00:20:11;;;;;;;;;;;17.90;60.00;;;;;;4988885;28;20026;-74
2021/04/06 00:22:37;;;;;;;;;;;17.80;60.00;;;;;;4995160;28;20012;-73
2021/04/06 00:25:05;;;;;;;;;;;17.80;60.00;;;;;;4994584;28;19914;-74
2021/04/06 00:27:33;;;;;;;;;;;17.90;60.00;;;;;;4985736;28;19958;-74
2021/04/06 00:30:04;;;;;;;;;;;17.80;60.00;;;;;;5002628;28;19917;-74
2021/04/06 00:32:30;;;;;;;;;;;17.90;60.00;;;;;;4991598;28;20340;-74
2021/04/06 00:34:57;;;;;;;;;;;17.80;60.00;;;;;;4993552;28;19929;-74
2021/04/06 00:37:23;;;;;;;;;;;17.80;60.00;;;;;;5003889;28;20000;-73
2021/04/06 00:39:55;;;;;;;;;;;17.80;60.00;;;;;;4991310;28;19922;-73
2021/04/06 00:42:25;;;;;;;;;;;17.80;60.00;;;;;;4992742;28;19914;-73
2021/04/06 00:44:56;;;;;;;;;;;17.90;60.00;;;;;;5006551;28;19937;-74
2021/04/06 00:47:26;;;;;;;;;;;17.80;60.00;;;;;;4986172;28;19914;-74
2021/04/06 00:49:52;;;;;;;;;;;17.80;60.00;;;;;;4996050;28;19914;-74
2021/04/06 00:52:18;;;;;;;;;;;17.80;60.10;;;;;;4993432;28;19914;-74
2021/04/06 00:54:43;;;;;;;;;;;17.80;60.10;;;;;;5004758;28;20274;-74
2021/04/06 00:57:12;;;;;;;;;;;17.80;60.10;;;;;;4981428;28;19915;-74
2021/04/06 00:59:39;;;;;;;;;;;17.80;60.10;;;;;;4987725;28;19980;-74
2021/04/06 01:02:07;;;;;;;;;;;17.80;60.10;;;;;;4992279;28;20355;-74
2021/04/06 01:04:33;;;;;;;;;;;17.80;60.10;;;;;;4992048;28;19918;-74
2021/04/06 01:07:13;;;;;;;;;;;17.80;60.10;;;;;;4984788;28;19915;-74
2021/04/06 01:09:42;;;;;;;;;;;17.80;60.10;;;;;;4975437;28;20356;-74
2021/04/06 01:12:08;;;;;;;;;;;17.80;60.10;;;;;;5005234;28;19937;-75
2021/04/06 01:14:39;;;;;;;;;;;17.80;60.10;;;;;;5004875;28;19918;-75
2021/04/06 01:17:05;;;;;;;;;;;17.80;60.10;;;;;;4999911;28;19997;-74
2021/04/06 01:19:32;;;;;;;;;;;17.80;60.10;;;;;;5014549;28;19929;-74
2021/04/06 01:22:02;;;;;;;;;;;17.80;60.10;;;;;;4979588;28;20356;-74
2021/04/06 01:24:29;;;;;;;;;;;17.80;60.10;;;;;;4987799;28;19992;-74
2021/04/06 01:26:55;;;;;;;;;;;17.80;60.10;;;;;;4977019;28;19921;-74
2021/04/06 01:29:21;;;;;;;;;;;17.80;60.10;;;;;;4984005;28;19914;-75
2021/04/06 01:31:51;;;;;;;;;;;17.80;60.10;;;;;;5015060;28;19920;-74
2021/04/06 01:34:17;;;;;;;;;;;17.80;60.10;;;;;;4999028;28;19941;-74
2021/04/06 01:36:44;;;;;;;;;;;17.80;60.10;;;;;;4987115;28;19921;-74
2021/04/06 01:39:12;;;;;;;;;;;17.80;60.10;;;;;;4983880;28;19929;-74
2021/04/06 01:41:37;;;;;;;;;;;17.80;60.20;;;;;;4975741;28;20012;-75
2021/04/06 01:44:03;;;;;;;;;;;17.80;60.20;;;;;;4980119;28;20427;-75
2021/04/06 01:46:38;;;;;;;;;;;17.70;60.20;;;;;;5000896;28;19921;-76
2021/04/06 01:49:04;;;;;;;;;;;17.80;60.20;;;;;;4985101;28;19914;-75
2021/04/06 01:51:30;;;;;;;;;;;17.80;60.20;;;;;;4990035;28;20001;-75
2021/04/06 01:53:56;;;;;;;;;;;17.80;60.20;;;;;;5004777;28;20470;-75
2021/04/06 01:56:22;;;;;;;;;;;17.80;60.20;;;;;;4989114;28;19969;-76
2021/04/06 01:58:51;;;;;;;;;;;17.80;60.20;;;;;;4989486;28;20331;-75
2021/04/06 02:01:24;;;;;;;;;;;17.80;60.20;;;;;;4992348;28;20371;-75
2021/04/06 02:04:03;;;;;;;;;;;17.70;60.20;;;;;;4986867;28;19914;-75
2021/04/06 02:06:31;;;;;;;;;;;17.80;60.20;;;;;;5007592;28;19913;-75
2021/04/06 02:08:57;;;;;;;;;;;17.70;60.20;;;;;;4978358;28;19919;-75
2021/04/06 02:11:24;;;;;;;;;;;17.70;60.20;;;;;;4975037;28;19914;-75
2021/04/06 02:13:50;;;;;;;;;;;17.70;60.20;;;;;;4975087;28;19914;-75
2021/04/06 02:16:15;;;;;;;;;;;17.70;60.20;;;;;;4987881;28;20283;-75
2021/04/06 02:18:41;;;;;;;;;;;17.70;60.20;;;;;;4999570;28;20301;-75
2021/04/06 02:21:07;;;;;;;;;;;17.70;60.20;;;;;;4993013;28;19929;-75
2021/04/06 02:23:39;;;;;;;;;;;17.70;60.20;;;;;;5000898;28;19918;-75
2021/04/06 02:26:05;;;;;;;;;;;17.70;60.30;;;;;;4985789;28;19960;-75
2021/04/06 02:28:31;;;;;;;;;;;17.70;60.20;;;;;;4974449;28;19918;-76
2021/04/06 02:30:58;;;;;;;;;;;17.70;60.30;;;;;;4981535;28;19921;-75
2021/04/06 02:33:28;;;;;;;;;;;17.70;60.30;;;;;;4979789;28;20292;-75
2021/04/06 02:35:57;;;;;;;;;;;17.70;60.30;;;;;;4991695;28;19914;-75
2021/04/06 02:38:22;;;;;;;;;;;17.70;60.30;;;;;;4993940;28;19918;-76
2021/04/06 02:40:50;;;;;;;;;;;17.70;60.30;;;;;;5008029;28;19917;-75
2021/04/06 02:43:16;;;;;;;;;;;17.70;60.30;;;;;;4995163;28;20013;-75
2021/04/06 02:45:42;;;;;;;;;;;17.70;60.30;;;;;;4988356;28;20009;-75
2021/04/06 02:48:12;;;;;;;;;;;17.70;60.30;;;;;;4978478;28;20012;-75
2021/04/06 02:50:40;;;;;;;;;;;17.70;60.30;;;;;;5004538;28;19914;-75
2021/04/06 02:53:09;;;;;;;;;;;17.70;60.30;;;;;;4994849;28;19913;-75
2021/04/06 02:55:35;;;;;;;;;;;17.70;60.30;;;;;;5001235;28;19914;-75
2021/04/06 02:58:11;;;;;;;;;;;17.60;60.30;;;;;;5008950;28;19975;-75
2021/04/06 03:00:36;;;;;;;;;;;17.60;60.30;;;;;;4989245;28;19918;-75
2021/04/06 03:03:18;;;;;;;;;;;17.70;60.30;;;;;;4980879;28;20288;-75
2021/04/06 03:05:44;;;;;;;;;;;17.70;60.30;;;;;;4983293;28;19914;-75
2021/04/06 03:08:09;;;;;;;;;;;17.60;60.30;;;;;;4981763;28;19951;-74
2021/04/06 03:10:35;;;;;;;;;;;17.70;60.30;;;;;;5007379;28;19914;-75
2021/04/06 03:13:08;;;;;;;;;;;17.70;60.30;;;;;;4982958;28;19915;-75
2021/04/06 03:15:36;;;;;;;;;;;17.60;60.30;;;;;;4988634;28;19914;-75
2021/04/06 03:18:03;;;;;;;;;;;17.60;60.30;;;;;;5002501;28;19921;-76
2021/04/06 03:20:29;;;;;;;;;;;17.60;60.30;;;;;;4991038;28;20291;-75
2021/04/06 03:22:55;;;;;;;;;;;17.60;60.40;;;;;;4996269;28;19918;-75
2021/04/06 03:25:21;;;;;;;;;;;17.70;60.40;;;;;;4991621;28;19914;-74
2021/04/06 03:27:48;;;;;;;;;;;17.60;60.40;;;;;;4994007;28;19968;-75
2021/04/06 03:30:31;;;;;;;;;;;17.60;60.40;;;;;;4986167;28;19914;-75
2021/04/06 03:32:58;;;;;;;;;;;17.70;60.40;;;;;;4979975;28;19914;-75
2021/04/06 03:35:23;;;;;;;;;;;17.60;60.40;;;;;;5005806;28;20319;-75
2021/04/06 03:37:49;;;;;;;;;;;17.60;60.40;;;;;;4979935;28;20134;-75
2021/04/06 03:40:15;;;;;;;;;;;17.60;60.40;;;;;;5002166;28;19917;-75
2021/04/06 03:42:40;;;;;;;;;;;17.60;60.40;;;;;;4994246;28;19976;-75
2021/04/06 03:45:07;;;;;;;;;;;17.60;60.40;;;;;;4999802;28;20014;-75
2021/04/06 03:47:52;;;;;;;;;;;17.60;60.40;;;;;;4990182;28;20260;-76
2021/04/06 03:50:37;;;;;;;;;;;17.60;60.40;;;;;;4986462;28;19925;-75
2021/04/06 03:53:03;;;;;;;;;;;17.60;60.40;;;;;;4979628;28;19922;-75
2021/04/06 03:55:29;;;;;;;;;;;17.60;60.40;;;;;;4997288;28;19914;-75
2021/04/06 03:58:02;;;;;;;;;;;17.60;60.40;;;;;;4980436;28;19921;-75
2021/04/06 04:00:27;;;;;;;;;;;17.60;60.40;;;;;;5013307;28;19981;-75
2021/04/06 04:02:53;;;;;;;;;;;17.60;60.40;;;;;;5001735;28;20028;-76
2021/04/06 04:05:18;;;;;;;;;;;17.60;60.40;;;;;;5004262;28;19921;-75
2021/04/06 04:07:44;;;;;;;;;;;17.60;60.40;;;;;;4983024;28;20364;-75
2021/04/06 04:10:11;;;;;;;;;;;17.60;60.40;;;;;;4977152;28;19914;-75
2021/04/06 04:12:37;;;;;;;;;;;17.60;60.40;;;;;;4977445;28;19914;-75
2021/04/06 04:15:03;;;;;;;;;;;17.60;60.40;;;;;;4999760;28;19917;-75
2021/04/06 04:17:28;;;;;;;;;;;17.60;60.40;;;;;;5002458;28;19953;-75
2021/04/06 04:19:54;;;;;;;;;;;17.50;60.40;;;;;;4987644;28;19960;-75
2021/04/06 04:22:19;;;;;;;;;;;17.60;60.40;;;;;;4993649;28;20077;-76
2021/04/06 04:24:45;;;;;;;;;;;17.50;60.40;;;;;;4981626;28;19969;-75
2021/04/06 04:27:10;;;;;;;;;;;17.60;60.40;;;;;;4991409;28;20386;-75
2021/04/06 04:29:36;;;;;;;;;;;17.50;60.40;;;;;;4992423;28;19918;-75
2021/04/06 04:32:02;;;;;;;;;;;17.50;60.40;;;;;;4990550;28;19921;-75
2021/04/06 04:34:28;;;;;;;;;;;17.50;60.40;;;;;;4994371;28;20251;-75
2021/04/06 04:36:53;;;;;;;;;;;17.50;60.40;;;;;;4993181;28;19918;-74
2021/04/06 04:39:19;;;;;;;;;;;17.50;60.40;;;;;;4992148;28;19922;-76
2021/04/06 04:41:44;;;;;;;;;;;17.50;60.50;;;;;;4983722;28;19918;-75
2021/04/06 04:44:10;;;;;;;;;;;17.50;60.40;;;;;;4995065;28;19913;-75
2021/04/06 04:46:35;;;;;;;;;;;17.50;60.40;;;;;;4984246;28;19969;-74
2021/04/06 04:49:01;;;;;;;;;;;17.50;60.40;;;;;;4995829;28;19914;-75
2021/04/06 04:51:27;;;;;;;;;;;17.50;60.40;;;;;;4994025;28;19921;-76
2021/04/06 04:53:52;;;;;;;;;;;17.50;60.40;;;;;;4990051;28;19925;-75
2021/04/06 04:56:18;;;;;;;;;;;17.50;60.40;;;;;;4992338;28;20252;-74
2021/04/06 04:58:43;;;;;;;;;;;17.50;60.40;;;;;;4981880;28;19914;-74
2021/04/06 05:01:10;;;;;;;;;;;17.50;60.40;;;;;;4976753;28;19925;-75
2021/04/06 05:03:35;;;;;;;;;;;17.50;60.40;;;;;;4976128;28;19965;-75
2021/04/06 05:06:01;;;;;;;;;;;17.50;60.40;;;;;;4977675;28;19914;-76
2021/04/06 05:08:26;;;;;;;;;;;17.50;60.40;;;;;;4993197;28;20384;-75
2021/04/06 05:10:52;;;;;;;;;;;17.50;60.40;;;;;;4983465;28;19918;-75
2021/04/06 05:13:18;;;;;;;;;;;17.50;60.40;;;;;;4992693;28;19921;-76
2021/04/06 05:15:43;;;;;;;;;;;17.60;60.40;;;;;;4986195;28;19914;-74
2021/04/06 05:18:09;;;;;;;;;;;17.50;60.40;;;;;;4985075;28;19944;-75
2021/04/06 05:20:34;;;;;;;;;;;17.50;60.30;;;;;;4990762;28;20005;-75
2021/04/06 05:23:00;;;;;;;;;;;17.50;60.40;;;;;;4993050;28;19920;-75
2021/04/06 05:25:25;;;;;;;;;;;17.50;60.40;;;;;;4987784;28;20264;-75
2021/04/06 05:27:51;;;;;;;;;;;17.50;60.30;;;;;;4977234;28;19914;-75
2021/04/06 05:30:17;;;;;;;;;;;17.50;60.30;;;;;;4979539;28;19913;-75
2021/04/06 05:32:42;;;;;;;;;;;17.50;60.30;;;;;;4996901;28;20328;-75
2021/04/06 05:35:08;;;;;;;;;;;17.50;60.30;;;;;;4987926;28;19914;-75
2021/04/06 05:37:33;;;;;;;;;;;17.60;60.30;;;;;;5002370;28;19980;-75
2021/04/06 05:39:59;;;;;;;;;;;17.50;60.30;;;;;;4983900;28;20360;-75
2021/04/06 05:42:25;;;;;;;;;;;17.50;60.30;;;;;;4993479;28;19957;-74
2021/04/06 05:44:50;;;;;;;;;;;17.60;60.30;;;;;;4991039;28;20017;-74
2021/04/06 05:47:19;;;;;;;;;;;17.50;60.30;;;;;;5006645;28;19914;-75
2021/04/06 05:49:45;;;;;;;;;;;17.50;60.30;;;;;;4989949;28;19964;-74
2021/04/06 05:52:10;;;;;;;;;;;17.50;60.20;;;;;;4989921;28;19957;-75
2021/04/06 05:54:36;;;;;;;;;;;17.60;60.20;;;;;;4987370;28;19972;-74
2021/04/06 05:57:02;;;;;;;;;;;17.50;60.20;;;;;;4987411;28;20001;-74
2021/04/06 05:59:27;;;;;;;;;;;17.50;60.20;;;;;;4990059;28;19924;-74
2021/04/06 06:01:53;;;;;;;;;;;17.60;60.20;;;;;;4988537;28;19922;-74
2021/04/06 06:04:18;;;;;;;;;;;17.50;60.20;;;;;;4988985;28;20004;-74
2021/04/06 06:06:49;;;;;;;;;;;17.50;60.20;;;;;;4987226;28;19910;-74
2021/04/06 06:09:27;;;;;;;;;;;17.60;60.20;;;;;;4993217;28;19941;-74
2021/04/06 06:12:00;;;;;;;;;;;17.60;60.20;;;;;;4989158;28;19914;-74
2021/04/06 06:14:28;;;;;;;;;;;17.60;60.20;;;;;;4989337;28;19989;-75
2021/04/06 06:16:54;;;;;;;;;;;17.60;60.20;;;;;;4998658;28;20000;-74
2021/04/06 06:19:19;;;;;;;;;;;17.50;60.10;;;;;;4992148;28;20025;-74
2021/04/06 06:21:46;;;;;;;;;;;17.60;60.20;;;;;;4985377;28;20351;-74
2021/04/06 06:24:21;;;;;;;;;;;17.50;60.10;;;;;;4983895;28;20279;-74
2021/04/06 06:26:47;;;;;;;;;;;17.60;60.10;;;;;;5008722;28;19997;-75
2021/04/06 06:29:17;;;;;;;;;;;17.60;60.10;;;;;;4985812;28;20020;-74
2021/04/06 06:31:47;;;;;;;;;;;17.60;60.10;;;;;;4984701;28;19922;-74
2021/04/06 06:34:25;;;;;;;;;;;17.60;60.10;;;;;;5004028;28;19969;-74
2021/04/06 06:37:29;;;;;;;;;;;17.60;60.10;;;;;;5005926;28;19953;-75
2021/04/06 06:39:56;;;;;;;;;;;17.60;60.10;;;;;;4972400;28;20363;-74
2021/04/06 06:42:23;;;;;;;;;;;17.60;60.10;;;;;;4980758;28;20009;-74
2021/04/06 06:45:21;;;;;;;;;;;17.60;60.10;;;;;;4988689;28;20159;-75
2021/04/06 06:47:53;;;;;;;;;;;17.60;60.00;;;;;;4945394;28;20261;-76
2021/04/06 06:50:19;;;;;;;;;;;17.50;60.00;;;;;;4969479;28;19922;-75
2021/04/06 06:52:44;;;;;;;;;;;17.60;60.00;;;;;;4976000;28;19918;-75
2021/04/06 06:55:16;;;;;;;;;;;17.60;60.00;;;;;;4988712;28;19922;-76
2021/04/06 06:57:42;;;;;;;;;;;17.60;60.00;;;;;;4970483;28;19914;-77
2021/04/06 07:00:18;;;;;;;;;;;17.60;60.00;;;;;;4962689;28;19969;-75
2021/04/06 07:02:44;;;;;;;;;;;17.60;59.90;;;;;;4955778;28;19921;-76
2021/04/06 07:05:39;;;;;;;;;;;17.60;60.00;;;;;;4965673;28;20287;-75
2021/04/06 07:08:05;;;;;;;;;;;17.60;59.90;;;;;;4968779;28;20006;-76
2021/04/06 07:10:35;;;;;;;;;;;17.60;59.90;;;;;;4957586;28;19970;-75
2021/04/06 07:13:19;;;;;;;;;;;17.60;59.90;;;;;;4950541;28;20407;-76
2021/04/06 07:15:46;;;;;;;;;;;17.60;59.90;;;;;;4958950;28;19953;-76
2021/04/06 07:18:14;;;;;;;;;;;17.60;59.90;;;;;;4962853;28;19915;-76
2021/04/06 07:20:41;;;;;;;;;;;17.60;59.90;;;;;;4961085;28;19937;-77
2021/04/06 07:23:34;;;;;;;;;;;17.60;59.80;;;;;;4963879;28;19923;-77
2021/04/06 07:26:01;;;;;;;;;;;17.60;59.90;;;;;;4958150;28;19923;-77
2021/04/06 07:28:27;;;;;;;;;;;17.70;59.70;;;;;;4954592;28;20360;-77
2021/04/06 07:30:52;;;;;;;;;;;17.70;59.60;;;;;;4954087;28;19965;-77
2021/04/06 07:33:19;;;;;;;;;;;17.80;59.40;;;;;;4964876;28;20360;-77
2021/04/06 07:35:44;;;;;;;;;;;17.80;59.30;;;;;;4987329;28;19961;-78
2021/04/06 07:38:10;;;;;;;;;;;17.80;59.20;;;;;;4955306;28;19918;-77
2021/04/06 07:40:36;;;;;;;;;;;17.80;59.20;;;;;;4959236;28;20283;-77
2021/04/06 07:43:06;;;;;;;;;;;17.80;59.20;;;;;;4963167;28;19923;-77
2021/04/06 07:45:31;;;;;;;;;;;17.80;59.20;;;;;;4959804;28;19921;-77
2021/04/06 07:47:57;;;;;;;;;;;17.80;59.20;;;;;;4983591;28;19915;-77
2021/04/06 07:50:32;;;;;;;;;;;17.80;59.20;;;;;;4961609;28;19998;-77
2021/04/06 07:53:16;;;;;;;;;;;17.80;59.10;;;;;;4983567;28;19921;-77
2021/04/06 07:55:42;;;;;;;;;;;17.80;59.10;;;;;;4980037;28;19915;-78
2021/04/06 07:58:08;;;;;;;;;;;17.80;59.10;;;;;;4968628;28;19919;-78
2021/04/06 08:00:49;;;;;;;;;;;17.80;59.00;;;;;;4938354;28;19961;-78
2021/04/06 08:03:34;;;;;;;;;;;17.80;59.00;;;;;;4978754;28;19923;-77
2021/04/06 08:06:18;;;;;;;;;;;17.80;59.10;;;;;;4954972;28;19981;-78
2021/04/06 08:08:43;;;;;;;;;;;17.80;59.20;;;;;;4966324;28;19922;-78
2021/04/06 08:11:09;;;;;;;;;;;17.80;59.30;;;;;;4951708;28;19914;-77
2021/04/06 08:13:35;;;;;;;;;;;17.80;59.30;;;;;;4951410;28;20001;-78
2021/04/06 08:16:10;;;;;;;;;;;17.80;59.30;;;;;;4951591;28;19940;-77
2021/04/06 08:18:52;;;;;;;;;;;17.80;59.20;;;;;;4960279;28;20390;-77
2021/04/06 08:21:19;;;;;;;;;;;17.80;59.20;;;;;;4949223;28;19922;-78
2021/04/06 08:23:45;;;;;;;;;;;17.80;59.20;;;;;;4949568;28;19941;-78
2021/04/06 08:26:36;;;;;;;;;;;17.80;59.20;;;;;;4957363;28;19942;-78
2021/04/06 08:29:20;;;;;;;;;;;17.80;59.20;;;;;;4950776;28;19915;-79
2021/04/06 08:31:46;;;;;;;;;;;17.80;59.20;;;;;;4972581;28;19919;-77
2021/04/06 08:34:28;;;;;;;;;;;17.80;59.20;;;;;;4939571;28;19921;-78
2021/04/06 08:37:13;;;;;;;;;;;17.80;59.20;;;;;;4947592;28;19914;-77
2021/04/06 08:39:39;;;;;;;;;;;17.70;59.20;;;;;;4937297;28;19915;-78
2021/04/06 08:42:05;;;;;;;;;;;17.70;59.20;;;;;;4979058;28;20371;-77
2021/04/06 08:44:31;;;;;;;;;;;17.80;59.20;;;;;;4948971;28;20367;-78
2021/04/06 08:46:57;;;;;;;;;;;17.80;59.20;;;;;;4940528;28;19965;-77
2021/04/06 08:49:24;;;;;;;;;;;17.80;59.20;;;;;;4975705;28;19922;-77
2021/04/06 08:51:59;;;;;;;;;;;17.80;59.10;;;;;;4939605;28;19919;-78
2021/04/06 08:54:26;;;;;;;;;;;17.80;59.00;;;;;;4945231;28;19937;-77
2021/04/06 08:56:55;;;;;;;;;;;17.80;58.90;;;;;;4978051;28;19926;-79
2021/04/06 08:59:23;;;;;;;;;;;17.90;58.70;;;;;;4941728;28;20001;-78
2021/04/06 09:01:55;;;;;;;;;;;18.00;58.60;;;;;;4951725;28;19960;-79
2021/04/06 09:04:22;;;;;;;;;;;18.00;58.60;;;;;;4947660;28;20466;-79
2021/04/06 09:06:48;;;;;;;;;;;18.00;58.50;;;;;;4978879;28;19966;-78
2021/04/06 09:09:17;;;;;;;;;;;17.90;58.60;;;;;;4961039;28;19960;-78
2021/04/06 09:11:43;;;;;;;;;;;17.90;58.60;;;;;;4945674;28;19966;-78
2021/04/06 09:14:09;;;;;;;;;;;17.90;58.60;;;;;;4939228;28;20364;-77
2021/04/06 09:16:35;;;;;;;;;;;17.90;58.60;;;;;;4951232;28;19915;-78
2021/04/06 09:19:02;;;;;;;;;;;17.90;58.60;;;;;;4954326;28;19914;-78
2021/04/06 09:21:29;;;;;;;;;;;17.90;58.60;;;;;;4942828;28;20681;-78
2021/04/06 09:23:57;;;;;;;;;;;18.00;58.50;;;;;;4938689;28;19929;-78
2021/04/06 09:26:23;;;;;;;;;;;18.00;58.40;;;;;;4944917;28;19977;-78
2021/04/06 09:29:01;;;;;;;;;;;18.00;58.30;;;;;;4947672;28;20296;-78
2021/04/06 09:31:30;;;;;;;;;;;18.00;58.30;;;;;;4957062;28;19923;-78
2021/04/06 09:34:06;;;;;;;;;;;18.00;58.30;;;;;;4940861;28;19915;-78
2021/04/06 09:36:32;;;;;;;;;;;18.00;58.30;;;;;;4948232;28;19922;-78
2021/04/06 09:38:58;;;;;;;;;;;18.00;58.20;;;;;;4946085;28;19915;-78
2021/04/06 09:41:27;;;;;;;;;;;18.00;58.30;;;;;;4941152;28;19922;-78
2021/04/06 09:43:53;;;;;;;;;;;18.10;58.10;;;;;;4937362;28;19923;-77
2021/04/06 09:46:19;;;;;;;;;;;18.10;58.00;;;;;;4933915;28;20292;-77
2021/04/06 09:48:52;;;;;;;;;;;18.10;58.00;;;;;;4950377;28;20005;-78
2021/04/06 09:51:17;;;;;;;;;;;18.10;57.90;;;;;;4949513;28;20013;-78
2021/04/06 09:53:43;;;;;;;;;;;18.10;57.90;;;;;;4949389;28;20013;-78
2021/04/06 09:56:14;;;;;;;;;;;18.10;58.00;;;;;;4944505;28;19968;-77
2021/04/06 09:58:39;;;;;;;;;;;18.10;58.00;;;;;;4946036;28;19985;-77
2021/04/06 10:01:19;;;;;;;;;;;18.10;58.00;;;;;;4940628;28;20475;-77
2021/04/06 10:03:45;;;;;;;;;;;18.10;58.10;;;;;;4935177;28;20012;-77
2021/04/06 10:06:13;;;;;;;;;;;18.10;58.10;;;;;;4973872;28;19923;-77
2021/04/06 10:08:43;;;;;;;;;;;18.10;58.10;;;;;;4949835;28;19915;-79
2021/04/06 10:11:09;;;;;;;;;;;18.10;58.00;;;;;;4951531;28;19956;-78
2021/04/06 10:13:36;;;;;;;;;;;18.10;58.00;;;;;;4949082;28;20367;-77
2021/04/06 10:16:05;;;;;;;;;;;18.10;58.00;;;;;;4949743;28;19914;-77
2021/04/06 10:18:38;;;;;;;;;;;18.10;57.90;;;;;;4972321;28;20376;-77
2021/04/06 10:21:15;;;;;;;;;;;18.10;58.00;;;;;;4968413;28;19921;-77
2021/04/06 10:23:40;;;;;;;;;;;18.10;58.10;;;;;;4944487;28;20029;-78
2021/04/06 10:26:23;;;;;;;;;;;18.00;58.00;;;;;;4941388;28;20014;-77
2021/04/06 10:28:59;;;;;;;;;;;18.00;58.10;;;;;;4967378;28;19919;-78
2021/04/06 10:31:25;;;;;;;;;;;18.10;58.00;;;;;;4936588;28;19915;-78
2021/04/06 10:33:50;;;;;;;;;;;18.10;57.90;;;;;;4973288;28;19946;-78
2021/04/06 10:36:17;;;;;;;;;;;18.20;57.80;;;;;;4942809;28;19988;-77
2021/04/06 10:38:43;;;;;;;;;;;18.20;57.70;;;;;;4950357;28;19915;-77
2021/04/06 10:41:12;;;;;;;;;;;18.20;57.60;;;;;;4939945;28;19930;-78
2021/04/06 10:43:51;;;;;;;;;;;18.20;57.60;;;;;;4993595;28;20379;-78
2021/04/06 10:46:18;;;;;;;;;;;18.20;57.60;;;;;;4958991;28;19915;-78
2021/04/06 10:48:48;;;;;;;;;;;18.20;57.60;;;;;;4945569;28;19921;-77
2021/04/06 10:51:21;;;;;;;;;;;18.20;57.60;;;;;;4943151;28;19954;-77
2021/04/06 10:53:48;;;;;;;;;;;18.20;57.60;;;;;;4944953;28;19948;-78
2021/04/06 10:56:16;;;;;;;;;;;18.20;57.50;;;;;;4947036;28;19921;-77
2021/04/06 10:58:49;;;;;;;;;;;18.20;57.50;;;;;;4951546;28;20029;-77
2021/04/06 11:01:16;;;;;;;;;;;18.20;57.40;;;;;;4943369;28;20286;-77
2021/04/06 11:03:48;;;;;;;;;;;18.20;57.40;;;;;;4938518;28;19922;-78
2021/04/06 11:06:19;;;;;;;;;;;18.20;57.40;;;;;;4948271;28;19914;-78
2021/04/06 11:08:46;;;;;;;;;;;18.20;57.50;;;;;;4974978;28;19922;-78
2021/04/06 11:11:20;;;;;;;;;;;18.20;57.50;;;;;;4951634;28;19922;-77
2021/04/06 11:13:46;;;;;;;;;;;18.20;57.50;;;;;;4950990;28;19938;-78
2021/04/06 11:16:12;;;;;;;;;;;18.20;57.40;;;;;;4948524;28;19962;-76
2021/04/06 11:18:37;;;;;;;;;;;18.20;57.50;;;;;;4951148;28;19968;-78
2021/04/06 11:21:03;;;;;;;;;;;18.20;57.50;;;;;;4951306;28;19960;-78
2021/04/06 11:23:29;;;;;;;;;;;18.20;57.50;;;;;;4944740;28;19978;-77
2021/04/06 11:25:54;;;;;;;;;;;18.20;57.50;;;;;;4946426;28;19919;-78
2021/04/06 11:28:20;;;;;;;;;;;18.20;57.60;;;;;;4952926;28;20368;-78
2021/04/06 11:30:45;;;;;;;;;;;18.20;57.60;;;;;;4962316;28;19919;-78
2021/04/06 11:33:11;;;;;;;;;;;18.10;57.80;;;;;;4936022;28;19914;-78
2021/04/06 11:35:36;;;;;;;;;;;18.10;57.90;;;;;;4952441;28;20004;-78
2021/04/06 11:38:02;;;;;;;;;;;18.10;57.90;;;;;;4940568;28;20362;-78
2021/04/06 11:40:28;;;;;;;;;;;18.10;57.90;;;;;;4946144;28;20005;-77
2021/04/06 11:42:54;;;;;;;;;;;18.10;57.80;;;;;;4946244;28;20004;-77
2021/04/06 11:45:22;;;;;;;;;;;18.10;57.70;;;;;;4947359;28;19914;-77
2021/04/06 11:47:49;;;;;;;;;;;18.10;57.70;;;;;;4962153;28;19968;-78
2021/04/06 11:50:15;;;;;;;;;;;18.20;57.70;;;;;;4973644;28;19986;-76
2021/04/06 11:52:41;;;;;;;;;;;18.20;57.60;;;;;;4949777;28;19914;-77
2021/04/06 11:55:06;;;;;;;;;;;18.20;57.50;;;;;;4944947;28;19915;-77
2021/04/06 11:57:32;;;;;;;;;;;18.30;57.30;;;;;;4950017;28;19972;-77
2021/04/06 11:59:58;;;;;;;;;;;18.30;57.30;;;;;;4949765;28;19954;-78
2021/04/06 12:02:23;;;;;;;;;;;18.20;57.40;;;;;;4974444;28;19914;-78
2021/04/06 12:04:49;;;;;;;;;;;18.20;57.40;;;;;;4947520;28;20371;-78
2021/04/06 12:07:15;;;;;;;;;;;18.10;57.60;;;;;;4981313;28;19915;-81
2021/04/06 12:09:40;;;;;;;;;;;18.20;57.60;;;;;;4950944;28;19915;-79
2021/04/06 12:12:06;;;;;;;;;;;18.20;57.50;;;;;;4945380;28;19930;-79
2021/04/06 12:14:32;;;;;;;;;;;18.20;57.40;;;;;;4959414;28;19914;-80
2021/04/06 12:17:02;;;;;;;;;;;18.20;57.50;;;;;;4955504;28;19911;-80
2021/04/06 12:19:28;;;;;;;;;;;18.10;57.60;;;;;;4950107;28;19944;-80
2021/04/06 12:21:53;;;;;;;;;;;18.10;57.70;;;;;;4948189;28;19961;-79
2021/04/06 12:24:19;;;;;;;;;;;18.10;57.70;;;;;;4943870;28;19941;-77
2021/04/06 12:26:44;;;;;;;;;;;18.00;57.90;;;;;;4945872;28;20387;-76
2021/04/06 12:29:10;;;;;;;;;;;18.00;58.10;;;;;;4977709;28;19941;-76
2021/04/06 12:31:36;;;;;;;;;;;17.90;58.30;;;;;;4947720;28;19919;-76
2021/04/06 12:34:01;;;;;;;;;;;17.80;58.40;;;;;;4954229;28;19914;-76
2021/04/06 12:36:27;;;;;;;;;;;17.80;58.50;;;;;;4923197;28;19919;-76
2021/04/06 12:38:53;;;;;;;;;;;17.80;58.60;;;;;;4948777;28;19921;-75
2021/04/06 12:41:18;;;;;;;;;;;17.80;58.60;;;;;;4951887;28;19915;-75
2021/04/06 12:43:44;;;;;;;;;;;17.70;58.70;;;;;;4968824;28;19921;-75
2021/04/06 12:46:10;;;;;;;;;;;17.80;58.70;;;;;;4965707;28;19920;-75
2021/04/06 12:48:35;;;;;;;;;;;17.80;58.70;;;;;;4946973;28;19961;-75
2021/04/06 12:51:01;;;;;;;;;;;17.80;58.60;;;;;;4951939;28;20223;-75
2021/04/06 12:53:26;;;;;;;;;;;17.80;58.40;;;;;;4966557;28;20267;-74
2021/04/06 12:55:52;;;;;;;;;;;17.80;58.40;;;;;;4992294;28;19918;-74
2021/04/06 12:58:18;;;;;;;;;;;17.80;58.40;;;;;;4997537;28;20002;-75
2021/04/06 13:00:43;;;;;;;;;;;17.80;58.50;;;;;;4961186;28;19960;-77
2021/04/06 13:03:09;;;;;;;;;;;17.80;58.60;;;;;;4935590;28;19926;-74
2021/04/06 13:05:39;;;;;;;;;;;17.80;58.80;;;;;;4938696;28;19914;-76
2021/04/06 13:08:09;;;;;;;;;;;17.70;58.80;;;;;;4936673;29;19953;-76
2021/04/06 13:10:40;;;;;;;;;;;17.70;58.90;;;;;;4949247;28;19914;-75
2021/04/06 13:13:06;;;;;;;;;;;17.70;58.80;;;;;;4941404;28;20475;-75
2021/04/06 13:15:31;;;;;;;;;;;17.80;58.80;;;;;;4950395;28;20401;-75
2021/04/06 13:17:57;;;;;;;;;;;17.70;58.70;;;;;;4973556;28;20052;-75
2021/04/06 13:20:23;;;;;;;;;;;17.80;58.70;;;;;;4944619;28;19915;-74
2021/04/06 13:22:48;;;;;;;;;;;17.70;58.70;;;;;;4949857;28;20364;-74
2021/04/06 13:25:14;;;;;;;;;;;17.80;58.70;;;;;;4951610;28;20373;-73
2021/04/06 13:27:40;;;;;;;;;;;17.80;58.50;;;;;;4945034;28;19915;-73
2021/04/06 13:30:07;;;;;;;;;;;17.90;58.40;;;;;;4951172;28;19980;-74
2021/04/06 13:32:39;;;;;;;;;;;17.90;58.20;;;;;;4940480;28;20005;-74
2021/04/06 13:35:06;;;;;;;;;;;17.80;58.30;;;;;;4951218;28;19923;-74
2021/04/06 13:37:32;;;;;;;;;;;17.80;58.30;;;;;;4946013;28;19915;-76
2021/04/06 13:40:00;;;;;;;;;;;17.90;58.20;;;;;;4956539;28;19976;-75
2021/04/06 13:42:27;;;;;;;;;;;17.80;58.30;;;;;;4952014;28;19922;-74
2021/04/06 13:44:52;;;;;;;;;;;17.80;58.30;;;;;;4962930;28;20316;-74
2021/04/06 13:47:18;;;;;;;;;;;17.80;58.40;;;;;;4965771;28;19929;-73
2021/04/06 13:49:43;;;;;;;;;;;17.80;58.50;;;;;;4939113;28;20330;-73
2021/04/06 13:52:09;;;;;;;;;;;17.80;58.60;;;;;;4970335;28;19915;-74
2021/04/06 13:54:37;;;;;;;;;;;17.80;58.70;;;;;;4955304;28;19911;-74
2021/04/06 13:57:03;;;;;;;;;;;17.80;58.70;;;;;;4935326;28;19957;-74
2021/04/06 13:59:34;;;;;;;;;;;17.80;58.60;;;;;;4948323;28;20247;-74
2021/04/06 14:01:59;;;;;;;;;;;17.70;58.60;;;;;;4934442;28;19965;-74
2021/04/06 14:04:25;;;;;;;;;;;17.70;58.70;;;;;;4965057;28;20197;-73
2021/04/06 14:06:50;;;;;;;;;;;17.70;58.70;;;;;;4966963;28;20330;-73
2021/04/06 14:09:16;;;;;;;;;;;17.80;58.70;;;;;;4949464;28;21833;-74
2021/04/06 14:11:41;;;;;;;;;;;17.80;58.70;;;;;;4956380;28;19929;-73
2021/04/06 14:14:07;;;;;;;;;;;17.80;58.70;;;;;;4945458;28;19915;-73
2021/04/06 14:16:33;;;;;;;;;;;17.80;58.70;;;;;;4951053;28;19915;-76
2021/04/06 14:18:58;;;;;;;;;;;17.80;58.70;;;;;;4958486;28;19964;-76
2021/04/06 14:21:24;;;;;;;;;;;17.80;58.70;;;;;;4939769;28;19972;-77